sensor_id;sensor_type;location;lat;lon;timestamp;pressure;altitude;pressure_sealevel;temperature;humidity
18858;BME280;9558;50.178;8.370;2023-02-28T00:01:18;99236.75;;;0.33;71.46
18858;BME280;9558;50.178;8.370;2023-02-28T00:03:44;99226.72;;;0.30;72.58
18858;BME280;9558;50.178;8.370;2023-02-28T00:06:11;99231.00;;;0.29;71.74
18858;BME280;9558;50.178;8.370;2023-02-28T00:08:38;99235.03;;;0.33;71.97
18858;BME280;9558;50.178;8.370;2023-02-28T00:11:07;99236.19;;;0.28;71.54
18858;BME280;9558;50.178;8.370;2023-02-28T00:13:36;99222.63;;;0.27;71.77
18858;BME280;9558;50.178;8.370;2023-02-28T00:16:05;99228.88;;;0.22;71.59
18858;BME280;9558;50.178;8.370;2023-02-28T00:18:32;99231.44;;;0.22;71.96
18858;BME280;9558;50.178;8.370;2023-02-28T00:20:59;99230.94;;;0.15;72.34
18858;BME280;9558;50.178;8.370;2023-02-28T00:23:26;99229.53;;;0.09;71.88
18858;BME280;9558;50.178;8.370;2023-02-28T00:25:54;99226.41;;;0.04;72.44
18858;BME280;9558;50.178;8.370;2023-02-28T00:28:21;99229.13;;;0.01;72.74
18858;BME280;9558;50.178;8.370;2023-02-28T00:30:49;99228.47;;;-0.03;72.80
18858;BME280;9558;50.178;8.370;2023-02-28T00:33:16;99227.88;;;-0.08;72.81
18858;BME280;9558;50.178;8.370;2023-02-28T00:35:42;99229.78;;;-0.11;73.61
18858;BME280;9558;50.178;8.370;2023-02-28T00:38:11;99230.16;;;-0.19;73.04
18858;BME280;9558;50.178;8.370;2023-02-28T00:40:38;99229.66;;;-0.26;73.80
18858;BME280;9558;50.178;8.370;2023-02-28T00:43:04;99227.34;;;-0.30;73.18
18858;BME280;9558;50.178;8.370;2023-02-28T00:45:31;99235.41;;;-0.38;74.17
18858;BME280;9558;50.178;8.370;2023-02-28T00:47:59;99235.41;;;-0.38;74.03
18858;BME280;9558;50.178;8.370;2023-02-28T00:50:25;99231.19;;;-0.39;73.94
18858;BME280;9558;50.178;8.370;2023-02-28T00:52:51;99227.16;;;-0.43;73.90
18858;BME280;9558;50.178;8.370;2023-02-28T00:55:18;99229.78;;;-0.45;74.05
18858;BME280;9558;50.178;8.370;2023-02-28T00:57:45;99229.16;;;-0.48;74.52
18858;BME280;9558;50.178;8.370;2023-02-28T01:00:12;99225.03;;;-0.51;75.38
18858;BME280;9558;50.178;8.370;2023-02-28T01:02:38;99225.19;;;-0.54;75.22
18858;BME280;9558;50.178;8.370;2023-02-28T01:05:07;99224.50;;;-0.58;75.28
18858;BME280;9558;50.178;8.370;2023-02-28T01:07:34;99234.84;;;-0.61;77.54
18858;BME280;9558;50.178;8.370;2023-02-28T01:10:00;99236.50;;;-0.60;75.25
18858;BME280;9558;50.178;8.370;2023-02-28T01:12:27;99229.75;;;-0.61;75.54
18858;BME280;9558;50.178;8.370;2023-02-28T01:14:53;99225.66;;;-0.63;75.44
18858;BME280;9558;50.178;8.370;2023-02-28T01:17:20;99222.22;;;-0.62;75.86
18858;BME280;9558;50.178;8.370;2023-02-28T01:19:46;99226.78;;;-0.69;77.55
18858;BME280;9558;50.178;8.370;2023-02-28T01:22:14;99216.59;;;-0.69;76.17
18858;BME280;9558;50.178;8.370;2023-02-28T01:24:41;99223.66;;;-0.74;77.93
18858;BME280;9558;50.178;8.370;2023-02-28T01:27:07;99226.22;;;-0.74;76.82
18858;BME280;9558;50.178;8.370;2023-02-28T01:29:34;99220.38;;;-0.76;77.03
18858;BME280;9558;50.178;8.370;2023-02-28T01:32:00;99218.94;;;-0.82;79.81
18858;BME280;9558;50.178;8.370;2023-02-28T01:34:27;99215.44;;;-0.79;77.83
18858;BME280;9558;50.178;8.370;2023-02-28T01:36:53;99212.28;;;-0.84;77.07
18858;BME280;9558;50.178;8.370;2023-02-28T01:39:21;99224.28;;;-0.87;78.39
18858;BME280;9558;50.178;8.370;2023-02-28T01:41:48;99211.66;;;-0.88;78.11
18858;BME280;9558;50.178;8.370;2023-02-28T01:47:18;99212.09;;;-0.97;77.97
18858;BME280;9558;50.178;8.370;2023-02-28T01:49:44;99213.91;;;-0.99;78.44
18858;BME280;9558;50.178;8.370;2023-02-28T01:52:11;99213.22;;;-1.03;78.15
18858;BME280;9558;50.178;8.370;2023-02-28T01:54:46;99210.09;;;-1.08;80.10
18858;BME280;9558;50.178;8.370;2023-02-28T01:57:16;99210.09;;;-1.08;79.54
18858;BME280;9558;50.178;8.370;2023-02-28T01:59:49;99200.09;;;-1.11;78.88
18858;BME280;9558;50.178;8.370;2023-02-28T02:02:18;99201.84;;;-1.13;78.55
18858;BME280;9558;50.178;8.370;2023-02-28T02:04:50;99197.75;;;-1.16;79.21
18858;BME280;9558;50.178;8.370;2023-02-28T02:07:19;99198.75;;;-1.18;78.45
18858;BME280;9558;50.178;8.370;2023-02-28T02:09:47;99205.75;;;-1.24;78.87
18858;BME280;9558;50.178;8.370;2023-02-28T02:12:21;99197.41;;;-1.26;78.78
18858;BME280;9558;50.178;8.370;2023-02-28T02:15:00;99200.97;;;-1.30;78.87
18858;BME280;9558;50.178;8.370;2023-02-28T02:17:32;99190.97;;;-1.33;78.68
18858;BME280;9558;50.178;8.370;2023-02-28T02:20:16;99201.25;;;-1.36;79.48
18858;BME280;9558;50.178;8.370;2023-02-28T02:23:10;99193.63;;;-1.36;80.07
18858;BME280;9558;50.178;8.370;2023-02-28T02:25:51;99185.50;;;-1.43;79.78
18858;BME280;9558;50.178;8.370;2023-02-28T02:28:51;99190.75;;;-1.46;82.74
18858;BME280;9558;50.178;8.370;2023-02-28T02:31:33;99184.81;;;-1.46;80.35
18858;BME280;9558;50.178;8.370;2023-02-28T02:34:23;99188.41;;;-1.50;80.40
18858;BME280;9558;50.178;8.370;2023-02-28T02:37:00;99189.25;;;-1.50;80.85
18858;BME280;9558;50.178;8.370;2023-02-28T02:39:31;99187.66;;;-1.52;80.44
18858;BME280;9558;50.178;8.370;2023-02-28T02:42:09;99196.09;;;-1.52;80.69
18858;BME280;9558;50.178;8.370;2023-02-28T02:44:40;99181.97;;;-1.58;81.03
18858;BME280;9558;50.178;8.370;2023-02-28T02:47:13;99182.13;;;-1.61;80.04
18858;BME280;9558;50.178;8.370;2023-02-28T02:49:45;99184.81;;;-1.64;80.40
18858;BME280;9558;50.178;8.370;2023-02-28T02:52:16;99187.50;;;-1.67;80.29
18858;BME280;9558;50.178;8.370;2023-02-28T02:54:45;99194.34;;;-1.69;80.76
18858;BME280;9558;50.178;8.370;2023-02-28T02:57:18;99195.19;;;-1.68;80.67
18858;BME280;9558;50.178;8.370;2023-02-28T02:59:46;99184.34;;;-1.72;81.13
18858;BME280;9558;50.178;8.370;2023-02-28T03:02:15;99195.38;;;-1.73;81.09
18858;BME280;9558;50.178;8.370;2023-02-28T03:04:47;99185.19;;;-1.71;80.69
18858;BME280;9558;50.178;8.370;2023-02-28T03:07:16;99189.56;;;-1.75;80.94
18858;BME280;9558;50.178;8.370;2023-02-28T03:09:50;99196.31;;;-1.74;81.16
18858;BME280;9558;50.178;8.370;2023-02-28T03:12:16;99193.84;;;-1.76;80.98
18858;BME280;9558;50.178;8.370;2023-02-28T03:14:51;99191.50;;;-1.80;83.04
18858;BME280;9558;50.178;8.370;2023-02-28T03:20:16;99196.56;;;-1.80;81.81
18858;BME280;9558;50.178;8.370;2023-02-28T03:23:01;99190.75;;;-1.82;81.40
18858;BME280;9558;50.178;8.370;2023-02-28T03:25:33;99191.63;;;-1.83;82.97
18858;BME280;9558;50.178;8.370;2023-02-28T03:28:08;99194.03;;;-1.80;81.90
18858;BME280;9558;50.178;8.370;2023-02-28T03:30:41;99192.34;;;-1.80;82.82
18858;BME280;9558;50.178;8.370;2023-02-28T03:33:16;99188.06;;;-1.79;82.62
18858;BME280;9558;50.178;8.370;2023-02-28T03:35:48;99193.16;;;-1.79;82.83
18858;BME280;9558;50.178;8.370;2023-02-28T03:38:20;99191.38;;;-1.77;82.55
18858;BME280;9558;50.178;8.370;2023-02-28T03:40:51;99193.28;;;-1.82;82.35
18858;BME280;9558;50.178;8.370;2023-02-28T03:43:22;99189.94;;;-1.83;82.52
18858;BME280;9558;50.178;8.370;2023-02-28T03:45:51;99198.50;;;-1.85;82.40
18858;BME280;9558;50.178;8.370;2023-02-28T03:48:22;99195.28;;;-1.89;82.53
18858;BME280;9558;50.178;8.370;2023-02-28T03:50:54;99202.09;;;-1.89;82.17
18858;BME280;9558;50.178;8.370;2023-02-28T03:53:25;99200.44;;;-1.91;82.14
18858;BME280;9558;50.178;8.370;2023-02-28T03:55:56;99192.06;;;-1.93;81.75
18858;BME280;9558;50.178;8.370;2023-02-28T03:58:31;99196.47;;;-1.96;81.86
18858;BME280;9558;50.178;8.370;2023-02-28T04:01:05;99198.19;;;-1.97;82.50
18858;BME280;9558;50.178;8.370;2023-02-28T04:03:36;99189.06;;;-2.01;83.41
18858;BME280;9558;50.178;8.370;2023-02-28T04:06:06;99202.41;;;-1.97;82.32
18858;BME280;9558;50.178;8.370;2023-02-28T04:08:33;99200.94;;;-2.01;83.29
18858;BME280;9558;50.178;8.370;2023-02-28T04:11:03;99201.75;;;-2.01;82.22
18858;BME280;9558;50.178;8.370;2023-02-28T04:13:31;99211.16;;;-2.03;82.24
18858;BME280;9558;50.178;8.370;2023-02-28T04:15:57;99197.69;;;-2.05;82.34
18858;BME280;9558;50.178;8.370;2023-02-28T04:18:24;99206.97;;;-2.04;82.45
18858;BME280;9558;50.178;8.370;2023-02-28T04:20:51;99196.81;;;-2.04;82.06
18858;BME280;9558;50.178;8.370;2023-02-28T04:23:19;99201.13;;;-2.06;83.30
18858;BME280;9558;50.178;8.370;2023-02-28T04:25:46;99195.03;;;-2.02;82.65
18858;BME280;9558;50.178;8.370;2023-02-28T04:28:12;99206.88;;;-2.02;82.14
18858;BME280;9558;50.178;8.370;2023-02-28T04:30:39;99203.47;;;-2.01;82.72
18858;BME280;9558;50.178;8.370;2023-02-28T04:33:05;99199.22;;;-2.01;81.82
18858;BME280;9558;50.178;8.370;2023-02-28T04:35:32;99199.34;;;-2.04;81.44
18858;BME280;9558;50.178;8.370;2023-02-28T04:37:59;99203.66;;;-2.06;81.73
18858;BME280;9558;50.178;8.370;2023-02-28T04:40:26;99194.53;;;-2.10;82.78
18858;BME280;9558;50.178;8.370;2023-02-28T04:42:53;99198.81;;;-2.11;82.44
18858;BME280;9558;50.178;8.370;2023-02-28T04:45:19;99197.06;;;-2.10;82.39
18858;BME280;9558;50.178;8.370;2023-02-28T04:47:46;99188.78;;;-2.14;83.01
18858;BME280;9558;50.178;8.370;2023-02-28T04:50:12;99188.88;;;-2.15;82.21
18858;BME280;9558;50.178;8.370;2023-02-28T04:52:39;99192.38;;;-2.18;82.39
18858;BME280;9558;50.178;8.370;2023-02-28T04:55:06;99194.16;;;-2.20;82.11
18858;BME280;9558;50.178;8.370;2023-02-28T04:57:34;99189.19;;;-2.23;83.63
18858;BME280;9558;50.178;8.370;2023-02-28T05:00:00;99186.72;;;-2.24;84.28
18858;BME280;9558;50.178;8.370;2023-02-28T05:02:30;99194.28;;;-2.23;82.80
18858;BME280;9558;50.178;8.370;2023-02-28T05:04:56;99185.03;;;-2.24;82.93
18858;BME280;9558;50.178;8.370;2023-02-28T05:07:23;99188.53;;;-2.27;82.54
18858;BME280;9558;50.178;8.370;2023-02-28T05:09:49;99195.41;;;-2.29;82.68
18858;BME280;9558;50.178;8.370;2023-02-28T05:12:16;99199.63;;;-2.29;82.94
18858;BME280;9558;50.178;8.370;2023-02-28T05:14:44;99195.50;;;-2.32;83.48
18858;BME280;9558;50.178;8.370;2023-02-28T05:17:10;99197.22;;;-2.32;83.54
18858;BME280;9558;50.178;8.370;2023-02-28T05:19:36;99193.75;;;-2.30;84.23
18858;BME280;9558;50.178;8.370;2023-02-28T05:22:03;99208.00;;;-2.27;84.01
18858;BME280;9558;50.178;8.370;2023-02-28T05:24:29;99205.25;;;-2.22;83.53
18858;BME280;9558;50.178;8.370;2023-02-28T05:26:56;99200.09;;;-2.21;86.09
18858;BME280;9558;50.178;8.370;2023-02-28T05:29:23;99207.50;;;-2.16;84.68
18858;BME280;9558;50.178;8.370;2023-02-28T05:31:51;99208.94;;;-2.11;85.37
18858;BME280;9558;50.178;8.370;2023-02-28T05:34:17;99211.16;;;-2.03;84.76
18858;BME280;9558;50.178;8.370;2023-02-28T05:36:44;99204.13;;;-1.98;84.86
18858;BME280;9558;50.178;8.370;2023-02-28T05:39:10;99208.03;;;-1.91;83.76
18858;BME280;9558;50.178;8.370;2023-02-28T05:41:39;99205.97;;;-1.82;83.62
18858;BME280;9558;50.178;8.370;2023-02-28T05:44:06;99209.25;;;-1.80;85.80
18858;BME280;9558;50.178;8.370;2023-02-28T05:46:33;99203.00;;;-1.73;84.45
18858;BME280;9558;50.178;8.370;2023-02-28T05:49:01;99198.69;;;-1.71;83.87
18858;BME280;9558;50.178;8.370;2023-02-28T05:51:27;99211.22;;;-1.68;84.58
18858;BME280;9558;50.178;8.370;2023-02-28T05:53:54;99205.84;;;-1.62;83.53
18858;BME280;9558;50.178;8.370;2023-02-28T05:56:22;99213.28;;;-1.57;82.92
18858;BME280;9558;50.178;8.370;2023-02-28T05:58:48;99208.88;;;-1.53;83.45
18858;BME280;9558;50.178;8.370;2023-02-28T06:01:24;99213.63;;;-1.47;82.67
18858;BME280;9558;50.178;8.370;2023-02-28T06:03:50;99208.56;;;-1.47;83.13
18858;BME280;9558;50.178;8.370;2023-02-28T06:06:18;99214.19;;;-1.41;82.62
18858;BME280;9558;50.178;8.370;2023-02-28T06:08:45;99224.88;;;-1.34;82.74
18858;BME280;9558;50.178;8.370;2023-02-28T06:11:12;99218.00;;;-1.32;82.27
18858;BME280;9558;50.178;8.370;2023-02-28T06:13:38;99224.72;;;-1.31;81.94
18858;BME280;9558;50.178;8.370;2023-02-28T06:16:05;99226.22;;;-1.27;82.00
18858;BME280;9558;50.178;8.370;2023-02-28T06:18:32;99219.34;;;-1.25;81.71
18858;BME280;9558;50.178;8.370;2023-02-28T06:20:59;99223.59;;;-1.25;81.25
18858;BME280;9558;50.178;8.370;2023-02-28T06:23:27;99225.25;;;-1.24;81.04
18858;BME280;9558;50.178;8.370;2023-02-28T06:25:54;99221.00;;;-1.24;81.02
18858;BME280;9558;50.178;8.370;2023-02-28T06:28:23;99232.19;;;-1.28;80.64
18858;BME280;9558;50.178;8.370;2023-02-28T06:30:51;99229.81;;;-1.31;79.88
18858;BME280;9558;50.178;8.370;2023-02-28T06:33:17;99225.69;;;-1.33;80.58
18858;BME280;9558;50.178;8.370;2023-02-28T06:35:44;99231.00;;;-1.38;80.27
18858;BME280;9558;50.178;8.370;2023-02-28T06:38:12;99236.81;;;-1.36;80.62
18858;BME280;9558;50.178;8.370;2023-02-28T06:40:40;99232.66;;;-1.37;80.93
18858;BME280;9558;50.178;8.370;2023-02-28T06:43:06;99234.19;;;-1.34;80.84
18858;BME280;9558;50.178;8.370;2023-02-28T06:45:33;99236.81;;;-1.36;80.33
18858;BME280;9558;50.178;8.370;2023-02-28T06:47:59;99228.53;;;-1.40;80.34
18858;BME280;9558;50.178;8.370;2023-02-28T06:50:26;99237.91;;;-1.42;80.43
18858;BME280;9558;50.178;8.370;2023-02-28T06:52:54;99240.69;;;-1.46;79.97
18858;BME280;9558;50.178;8.370;2023-02-28T06:55:21;99240.84;;;-1.49;79.72
18858;BME280;9558;50.178;8.370;2023-02-28T06:57:49;99236.13;;;-1.57;80.05
18858;BME280;9558;50.178;8.370;2023-02-28T07:00:16;99251.44;;;-1.59;79.83
18858;BME280;9558;50.178;8.370;2023-02-28T07:02:43;99245.59;;;-1.61;80.58
18858;BME280;9558;50.178;8.370;2023-02-28T07:05:09;99251.53;;;-1.62;80.98
18858;BME280;9558;50.178;8.370;2023-02-28T07:07:36;99258.19;;;-1.59;80.27
18858;BME280;9558;50.178;8.370;2023-02-28T07:10:06;99265.00;;;-1.60;80.84
18858;BME280;9558;50.178;8.370;2023-02-28T07:12:32;99259.78;;;-1.57;80.55
18858;BME280;9558;50.178;8.370;2023-02-28T07:15:00;99253.06;;;-1.58;81.13
18858;BME280;9558;50.178;8.370;2023-02-28T07:17:27;99260.53;;;-1.54;80.02
18858;BME280;9558;50.178;8.370;2023-02-28T07:19:53;99260.41;;;-1.51;80.47
18858;BME280;9558;50.178;8.370;2023-02-28T07:22:20;99258.44;;;-1.46;80.19
18858;BME280;9558;50.178;8.370;2023-02-28T07:24:46;99258.91;;;-1.38;80.07
18858;BME280;9558;50.178;8.370;2023-02-28T07:27:13;99258.91;;;-1.38;80.23
18858;BME280;9558;50.178;8.370;2023-02-28T07:29:51;99253.53;;;-1.32;80.04
18858;BME280;9558;50.178;8.370;2023-02-28T07:32:18;99260.13;;;-1.28;79.89
18858;BME280;9558;50.178;8.370;2023-02-28T07:34:45;99251.63;;;-1.27;79.60
18858;BME280;9558;50.178;8.370;2023-02-28T07:37:12;99242.81;;;-1.19;79.25
18858;BME280;9558;50.178;8.370;2023-02-28T07:39:38;99254.31;;;-1.12;78.68
18858;BME280;9558;50.178;8.370;2023-02-28T07:42:07;99251.63;;;-0.92;78.37
18858;BME280;9558;50.178;8.370;2023-02-28T07:44:35;99245.34;;;-0.67;77.69
18858;BME280;9558;50.178;8.370;2023-02-28T07:47:05;99251.03;;;-0.46;75.82
18858;BME280;9558;50.178;8.370;2023-02-28T07:49:34;99252.44;;;0.09;73.20
18858;BME280;9558;50.178;8.370;2023-02-28T07:52:00;99258.91;;;0.31;69.31
18858;BME280;9558;50.178;8.370;2023-02-28T07:54:26;99250.69;;;0.58;71.53
18858;BME280;9558;50.178;8.370;2023-02-28T07:56:53;99250.34;;;0.64;69.87
18858;BME280;9558;50.178;8.370;2023-02-28T07:59:19;99254.59;;;0.79;66.72
18858;BME280;9558;50.178;8.370;2023-02-28T08:01:46;99263.19;;;1.07;65.99
18858;BME280;9558;50.178;8.370;2023-02-28T08:04:15;99260.75;;;1.50;63.57
18858;BME280;9558;50.178;8.370;2023-02-28T08:06:43;99265.63;;;2.38;62.31
18858;BME280;9558;50.178;8.370;2023-02-28T08:09:09;99240.59;;;3.37;60.54
18858;BME280;9558;50.178;8.370;2023-02-28T08:11:36;99261.03;;;4.25;55.35
18858;BME280;9558;50.178;8.370;2023-02-28T08:14:03;99256.50;;;5.24;53.03
18858;BME280;9558;50.178;8.370;2023-02-28T08:16:30;99264.41;;;6.13;51.64
18858;BME280;9558;50.178;8.370;2023-02-28T08:18:56;99263.41;;;7.02;50.69
18858;BME280;9558;50.178;8.370;2023-02-28T08:21:23;99246.22;;;7.64;44.90
18858;BME280;9558;50.178;8.370;2023-02-28T08:23:51;99258.44;;;8.53;47.35
18858;BME280;9558;50.178;8.370;2023-02-28T08:26:18;99261.66;;;9.04;44.61
18858;BME280;9558;50.178;8.370;2023-02-28T08:28:45;99265.38;;;9.49;43.64
18858;BME280;9558;50.178;8.370;2023-02-28T08:31:14;99258.38;;;9.97;42.93
18858;BME280;9558;50.178;8.370;2023-02-28T08:33:42;99259.78;;;10.37;42.20
18858;BME280;9558;50.178;8.370;2023-02-28T08:36:10;99260.53;;;10.65;39.55
18858;BME280;9558;50.178;8.370;2023-02-28T08:38:38;99271.63;;;10.94;39.70
18858;BME280;9558;50.178;8.370;2023-02-28T08:41:06;99268.19;;;11.11;37.66
18858;BME280;9558;50.178;8.370;2023-02-28T08:43:34;99273.53;;;11.36;38.74
18858;BME280;9558;50.178;8.370;2023-02-28T08:46:01;99263.69;;;11.13;35.72
18858;BME280;9558;50.178;8.370;2023-02-28T08:48:30;99266.56;;;11.10;37.26
18858;BME280;9558;50.178;8.370;2023-02-28T08:50:58;99276.63;;;11.13;36.69
18858;BME280;9558;50.178;8.370;2023-02-28T08:53:25;99282.97;;;10.75;36.39
18858;BME280;9558;50.178;8.370;2023-02-28T08:55:56;99277.13;;;10.91;37.17
18858;BME280;9558;50.178;8.370;2023-02-28T08:58:25;99276.53;;;10.61;36.25
18858;BME280;9558;50.178;8.370;2023-02-28T09:00:51;99281.19;;;10.29;37.87
18858;BME280;9558;50.178;8.370;2023-02-28T09:03:19;99267.22;;;9.94;38.88
18858;BME280;9558;50.178;8.370;2023-02-28T09:05:52;99270.78;;;9.56;38.97
18858;BME280;9558;50.178;8.370;2023-02-28T09:08:19;99267.91;;;9.11;38.69
18858;BME280;9558;50.178;8.370;2023-02-28T09:10:46;99267.94;;;8.72;39.80
18858;BME280;9558;50.178;8.370;2023-02-28T09:13:12;99271.19;;;8.04;40.40
18858;BME280;9558;50.178;8.370;2023-02-28T09:15:40;99259.09;;;7.64;40.48
18858;BME280;9558;50.178;8.370;2023-02-28T09:18:07;99261.50;;;7.25;42.09
18858;BME280;9558;50.178;8.370;2023-02-28T09:20:36;99266.13;;;6.68;42.62
18858;BME280;9558;50.178;8.370;2023-02-28T09:23:03;99272.66;;;6.17;42.84
18858;BME280;9558;50.178;8.370;2023-02-28T09:25:30;99272.56;;;5.62;43.77
18858;BME280;9558;50.178;8.370;2023-02-28T09:27:57;99257.44;;;5.12;45.40
18858;BME280;9558;50.178;8.370;2023-02-28T09:30:23;99253.34;;;4.74;46.17
18858;BME280;9558;50.178;8.370;2023-02-28T09:32:52;99260.25;;;4.49;47.56
18858;BME280;9558;50.178;8.370;2023-02-28T09:35:19;99256.63;;;4.27;47.42
18858;BME280;9558;50.178;8.370;2023-02-28T09:37:46;99251.28;;;3.93;46.13
18858;BME280;9558;50.178;8.370;2023-02-28T09:40:14;99261.78;;;3.65;46.69
18858;BME280;9558;50.178;8.370;2023-02-28T09:42:45;99261.16;;;3.35;47.64
18858;BME280;9558;50.178;8.370;2023-02-28T09:45:22;99261.16;;;3.22;48.92
18858;BME280;9558;50.178;8.370;2023-02-28T09:47:54;99256.56;;;3.15;49.29
18858;BME280;9558;50.178;8.370;2023-02-28T09:50:33;99261.03;;;3.11;49.73
18858;BME280;9558;50.178;8.370;2023-02-28T09:53:03;99267.28;;;3.07;50.22
18858;BME280;9558;50.178;8.370;2023-02-28T09:55:36;99260.34;;;3.09;50.06
18858;BME280;9558;50.178;8.370;2023-02-28T09:58:04;99258.69;;;3.08;49.38
18858;BME280;9558;50.178;8.370;2023-02-28T10:00:32;99258.28;;;3.14;50.10
18858;BME280;9558;50.178;8.370;2023-02-28T10:03:25;99262.28;;;3.18;50.04
18858;BME280;9558;50.178;8.370;2023-02-28T10:05:57;99255.94;;;3.24;50.54
18858;BME280;9558;50.178;8.370;2023-02-28T10:08:27;99256.16;;;3.34;50.27
18858;BME280;9558;50.178;8.370;2023-02-28T10:10:58;99257.16;;;3.44;50.52
18858;BME280;9558;50.178;8.370;2023-02-28T10:13:32;99257.38;;;3.54;49.44
18858;BME280;9558;50.178;8.370;2023-02-28T10:16:04;99258.72;;;3.59;49.98
18858;BME280;9558;50.178;8.370;2023-02-28T10:18:41;99257.78;;;3.60;49.50
18858;BME280;9558;50.178;8.370;2023-02-28T10:21:17;99259.13;;;3.66;49.50
18858;BME280;9558;50.178;8.370;2023-02-28T10:23:46;99254.38;;;3.73;49.37
18858;BME280;9558;50.178;8.370;2023-02-28T10:26:16;99269.13;;;3.82;49.69
18858;BME280;9558;50.178;8.370;2023-02-28T10:28:44;99260.44;;;3.85;49.41
18858;BME280;9558;50.178;8.370;2023-02-28T10:31:11;99267.47;;;3.94;49.18
18858;BME280;9558;50.178;8.370;2023-02-28T10:33:43;99268.56;;;4.03;49.02
18858;BME280;9558;50.178;8.370;2023-02-28T10:36:14;99274.28;;;4.19;49.53
18858;BME280;9558;50.178;8.370;2023-02-28T10:38:43;99257.56;;;4.26;47.76
18858;BME280;9558;50.178;8.370;2023-02-28T10:41:14;99260.19;;;4.38;48.72
18858;BME280;9558;50.178;8.370;2023-02-28T10:43:42;99264.38;;;4.39;48.37
18858;BME280;9558;50.178;8.370;2023-02-28T10:46:14;99278.13;;;4.38;47.62
18858;BME280;9558;50.178;8.370;2023-02-28T10:49:01;99272.00;;;4.27;47.79
18858;BME280;9558;50.178;8.370;2023-02-28T10:51:35;99275.09;;;4.20;47.95
18858;BME280;9558;50.178;8.370;2023-02-28T10:54:02;99275.75;;;4.10;47.42
18858;BME280;9558;50.178;8.370;2023-02-28T10:56:31;99267.22;;;4.10;48.05
18858;BME280;9558;50.178;8.370;2023-02-28T10:59:00;99260.38;;;4.10;47.98
18858;BME280;9558;50.178;8.370;2023-02-28T11:01:35;99273.38;;;4.20;48.49
18858;BME280;9558;50.178;8.370;2023-02-28T11:04:16;99267.69;;;4.28;48.89
18858;BME280;9558;50.178;8.370;2023-02-28T11:06:43;99284.91;;;4.39;47.70
18858;BME280;9558;50.178;8.370;2023-02-28T11:09:27;99274.97;;;4.21;45.68
18858;BME280;9558;50.178;8.370;2023-02-28T11:11:55;99264.47;;;4.13;47.55
18858;BME280;9558;50.178;8.370;2023-02-28T11:14:24;99254.63;;;4.07;47.92
18858;BME280;9558;50.178;8.370;2023-02-28T11:16:54;99254.63;;;4.07;48.67
18858;BME280;9558;50.178;8.370;2023-02-28T11:19:27;99251.03;;;4.09;48.17
18858;BME280;9558;50.178;8.370;2023-02-28T11:21:56;99259.13;;;4.16;48.22
18858;BME280;9558;50.178;8.370;2023-02-28T11:24:26;99245.19;;;4.20;48.04
18858;BME280;9558;50.178;8.370;2023-02-28T11:26:54;99256.63;;;4.27;48.42
18858;BME280;9558;50.178;8.370;2023-02-28T11:29:22;99251.06;;;4.33;47.88
18858;BME280;9558;50.178;8.370;2023-02-28T11:32:13;99252.28;;;4.41;48.28
18858;BME280;9558;50.178;8.370;2023-02-28T11:34:42;99247.47;;;4.36;47.49
18858;BME280;9558;50.178;8.370;2023-02-28T11:37:12;99245.94;;;4.33;47.35
18858;BME280;9558;50.178;8.370;2023-02-28T11:39:39;99235.91;;;4.30;46.81
18858;BME280;9558;50.178;8.370;2023-02-28T11:42:26;99241.25;;;4.27;45.95
18858;BME280;9558;50.178;8.370;2023-02-28T11:45:07;99240.31;;;4.28;47.05
18858;BME280;9558;50.178;8.370;2023-02-28T11:47:43;99238.38;;;4.32;47.66
18858;BME280;9558;50.178;8.370;2023-02-28T11:50:22;99242.53;;;4.46;48.62
18858;BME280;9558;50.178;8.370;2023-02-28T11:52:55;99228.34;;;4.53;48.35
18858;BME280;9558;50.178;8.370;2023-02-28T11:55:25;99229.41;;;4.62;46.99
18858;BME280;9558;50.178;8.370;2023-02-28T11:58:09;99229.53;;;4.60;46.93
18858;BME280;9558;50.178;8.370;2023-02-28T12:00:43;99239.28;;;4.55;47.69
18858;BME280;9558;50.178;8.370;2023-02-28T12:03:22;99241.97;;;4.54;45.76
18858;BME280;9558;50.178;8.370;2023-02-28T12:06:01;99237.47;;;4.44;47.04
18858;BME280;9558;50.178;8.370;2023-02-28T12:08:43;99230.34;;;4.37;47.07
18858;BME280;9558;50.178;8.370;2023-02-28T12:11:19;99240.72;;;4.35;48.27
18858;BME280;9558;50.178;8.370;2023-02-28T12:13:59;99240.38;;;4.40;47.02
18858;BME280;9558;50.178;8.370;2023-02-28T12:16:44;99235.69;;;4.33;46.68
18858;BME280;9558;50.178;8.370;2023-02-28T12:19:19;99228.66;;;4.24;46.71
18858;BME280;9558;50.178;8.370;2023-02-28T12:22:10;99229.69;;;4.22;47.32
18858;BME280;9558;50.178;8.370;2023-02-28T12:24:55;99228.16;;;4.19;47.08
18858;BME280;9558;50.178;8.370;2023-02-28T12:27:30;99216.91;;;4.22;47.24
18858;BME280;9558;50.178;8.370;2023-02-28T12:30:01;99220.97;;;4.24;47.25
18858;BME280;9558;50.178;8.370;2023-02-28T12:32:31;99223.03;;;4.19;46.73
18858;BME280;9558;50.178;8.370;2023-02-28T12:35:02;99229.59;;;4.23;47.67
18858;BME280;9558;50.178;8.370;2023-02-28T12:37:36;99216.28;;;4.18;47.04
18858;BME280;9558;50.178;8.370;2023-02-28T12:40:10;99221.91;;;4.23;47.08
18858;BME280;9558;50.178;8.370;2023-02-28T12:42:41;99217.47;;;4.25;47.80
18858;BME280;9558;50.178;8.370;2023-02-28T12:45:12;99220.66;;;4.29;47.46
18858;BME280;9558;50.178;8.370;2023-02-28T12:47:42;99227.50;;;4.28;47.58
18858;BME280;9558;50.178;8.370;2023-02-28T12:50:12;99217.03;;;4.31;47.71
18858;BME280;9558;50.178;8.370;2023-02-28T12:52:48;99220.31;;;4.33;47.70
18858;BME280;9558;50.178;8.370;2023-02-28T12:55:21;99218.44;;;4.36;47.75
18858;BME280;9558;50.178;8.370;2023-02-28T12:57:57;99221.50;;;4.41;48.17
18858;BME280;9558;50.178;8.370;2023-02-28T13:00:33;99206.72;;;4.44;47.43
18858;BME280;9558;50.178;8.370;2023-02-28T13:03:14;99204.88;;;4.46;47.60
18858;BME280;9558;50.178;8.370;2023-02-28T13:06:11;99211.31;;;4.52;47.54
18858;BME280;9558;50.178;8.370;2023-02-28T13:09:00;99195.00;;;4.53;47.90
18858;BME280;9558;50.178;8.370;2023-02-28T13:11:29;99204.81;;;4.59;47.61
18858;BME280;9558;50.178;8.370;2023-02-28T13:13:58;99217.28;;;4.64;47.95
18858;BME280;9558;50.178;8.370;2023-02-28T13:16:26;99215.22;;;4.69;47.77
18858;BME280;9558;50.178;8.370;2023-02-28T13:19:08;99207.66;;;4.67;47.14
18858;BME280;9558;50.178;8.370;2023-02-28T13:21:42;99210.63;;;4.61;47.59
18858;BME280;9558;50.178;8.370;2023-02-28T13:24:11;99205.41;;;4.63;47.42
18858;BME280;9558;50.178;8.370;2023-02-28T13:27:24;99203.78;;;4.62;47.32
18858;BME280;9558;50.178;8.370;2023-02-28T13:29:57;99199.47;;;4.62;46.88
18858;BME280;9558;50.178;8.370;2023-02-28T13:32:41;99199.91;;;4.56;46.85
18858;BME280;9558;50.178;8.370;2023-02-28T13:35:47;99195.13;;;4.63;48.02
18858;BME280;9558;50.178;8.370;2023-02-28T13:38:23;99193.88;;;4.68;47.91